Time;durP1;ratioP1;P1;durP2;ratioP2;P2;SDS_P1;SDS_P2;PMS_P1;PMS_P2;Temp;Humidity;BMP_temperature;BMP_pressure;BME280_temperature;BME280_humidity;BME280_pressure;Samples;Min_cycle;Max_cycle;Signal;HPM_P1;HPM_P2
2022/10/21 00:01:09;;;;;;;20.15;14.20;;;14.90;79.10;;;;;;5085750;28;20103;-61
2022/10/21 00:03:36;;;;;;;21.23;14.45;;;14.90;79.10;;;;;;5084756;28;20039;-61
2022/10/21 00:06:03;;;;;;;22.52;14.15;;;14.90;79.00;;;;;;5085858;28;20032;-60
2022/10/21 00:08:28;;;;;;;23.58;14.55;;;14.90;79.00;;;;;;5076552;28;20021;-60
2022/10/21 00:10:57;;;;;;;20.58;13.45;;;14.90;79.00;;;;;;5085128;28;20396;-59
2022/10/21 00:13:24;;;;;;;22.40;14.63;;;15.00;79.00;;;;;;5084837;28;20020;-60
2022/10/21 00:16:04;;;;;;;28.05;15.75;;;15.00;79.00;;;;;;5076711;28;20040;-60
2022/10/21 00:18:31;;;;;;;23.70;14.25;;;15.00;79.30;;;;;;5084333;28;20033;-61
2022/10/21 00:20:57;;;;;;;21.80;13.38;;;15.00;79.00;;;;;;5085778;28;20040;-59
2022/10/21 00:23:23;;;;;;;23.88;14.23;;;15.00;79.00;;;;;;5066535;28;20043;-60
2022/10/21 00:25:49;;;;;;;23.75;14.88;;;15.00;79.10;;;;;;5085592;28;20032;-60
2022/10/21 00:28:15;;;;;;;31.73;15.68;;;15.00;79.10;;;;;;5084676;28;20029;-59
2022/10/21 00:30:44;;;;;;;24.38;14.85;;;15.00;79.00;;;;;;5085470;28;20052;-60
2022/10/21 00:33:11;;;;;;;30.08;15.15;;;15.00;79.10;;;;;;5066538;28;20024;-60
2022/10/21 00:35:37;;;;;;;25.10;15.30;;;14.90;79.10;;;;;;5085602;28;20028;-59
2022/10/21 00:38:03;;;;;;;23.60;14.30;;;14.90;79.10;;;;;;5066055;28;20031;-60
2022/10/21 00:40:29;;;;;;;24.13;14.88;;;15.00;79.20;;;;;;5085565;28;20039;-60
2022/10/21 00:42:55;;;;;;;28.02;15.32;;;15.00;79.20;;;;;;5084419;28;20033;-59
2022/10/21 00:45:24;;;;;;;26.90;14.90;;;15.00;79.20;;;;;;5085471;28;20387;-60
2022/10/21 00:48:07;;;;;;;29.65;15.90;;;15.00;79.10;;;;;;5084532;28;20020;-59
2022/10/21 00:50:48;;;;;;;33.38;17.42;;;15.00;79.10;;;;;;5085100;28;20075;-59
2022/10/21 00:53:15;;;;;;;27.05;15.65;;;15.00;79.30;;;;;;5045429;28;20053;-61
2022/10/21 00:55:56;;;;;;;37.67;16.67;;;15.00;79.20;;;;;;5065199;28;20025;-60
2022/10/21 00:58:25;;;;;;;29.95;17.23;;;15.00;79.40;;;;;;5044582;28;20120;-60
2022/10/21 01:00:54;;;;;;;31.02;16.70;;;15.00;79.00;;;;;;5065216;28;20025;-60
2022/10/21 01:03:22;;;;;;;30.15;16.58;;;15.00;79.20;;;;;;5064183;28;20039;-60
2022/10/21 01:05:49;;;;;;;31.13;15.02;;;14.90;79.20;;;;;;5065237;28;20017;-61
2022/10/21 01:08:14;;;;;;;37.65;17.50;;;15.00;79.40;;;;;;5067871;28;20036;-60
2022/10/21 01:10:40;;;;;;;28.17;15.25;;;14.90;79.30;;;;;;5050971;28;20033;-61
2022/10/21 01:13:46;;;;;;;29.10;15.30;;;15.00;79.40;;;;;;5068341;28;20036;-59
2022/10/21 01:16:20;;;;;;;27.88;14.98;;;14.90;79.80;;;;;;5049230;28;20385;-61
2022/10/21 01:18:55;;;;;;;;;;;14.90;79.50;;;;;;5068244;28;20040;-60
2022/10/21 01:21:48;;;;;;;28.52;14.48;;;15.00;79.80;;;;;;5069060;28;20322;-59
2022/10/21 01:24:28;;;;;;;30.52;14.63;;;15.00;79.70;;;;;;5048380;28;20053;-60
2022/10/21 01:27:34;;;;;;;34.03;17.10;;;15.00;79.40;;;;;;5048938;28;20033;-60
2022/10/21 01:30:38;;;;;;;30.80;16.52;;;15.00;79.70;;;;;;5066737;28;20094;-59
2022/10/21 01:33:10;;;;;;;37.88;16.35;;;15.00;79.80;;;;;;5041489;28;20041;-60
2022/10/21 01:35:42;;;;;;;32.70;16.80;;;15.00;79.40;;;;;;5050616;28;20044;-59
2022/10/21 01:38:08;;;;;;;32.28;17.58;;;15.00;79.50;;;;;;5056479;28;20036;-60
2022/10/21 01:40:56;;;;;;;34.50;17.33;;;15.00;79.50;;;;;;5069130;28;20047;-60
2022/10/21 01:43:57;;;;;;;34.65;17.83;;;15.00;79.70;;;;;;5038353;28;20049;-60
2022/10/21 01:46:33;;;;;;;32.78;17.00;;;15.00;79.70;;;;;;5028350;28;20110;-61
2022/10/21 01:49:05;;;;;;;40.95;18.02;;;15.00;79.60;;;;;;5056599;28;20035;-59
2022/10/21 01:51:32;;;;;;;31.90;15.63;;;15.00;79.50;;;;;;5050493;28;20044;-61
2022/10/21 01:54:06;;;;;;;33.30;18.40;;;15.00;79.50;;;;;;5081712;28;20048;-59
2022/10/21 01:56:32;;;;;;;37.50;17.85;;;15.00;79.80;;;;;;5068606;28;20033;-59
2022/10/21 01:59:00;;;;;;;38.15;18.15;;;15.10;79.70;;;;;;5086640;28;20052;-60
2022/10/21 02:01:27;;;;;;;40.65;19.48;;;15.00;79.80;;;;;;5070140;28;20028;-59
2022/10/21 02:03:58;;;;;;;36.00;17.38;;;15.10;79.90;;;;;;5086946;28;20028;-60
2022/10/21 02:06:24;;;;;;;32.67;17.00;;;15.00;79.90;;;;;;5050083;28;20044;-59
2022/10/21 02:08:51;;;;;;;36.60;15.27;;;15.10;79.90;;;;;;5086722;28;20048;-60
2022/10/21 02:11:17;;;;;;;38.70;17.90;;;15.10;79.90;;;;;;5087895;28;20498;-59
2022/10/21 02:13:52;;;;;;;34.70;18.38;;;15.10;79.90;;;;;;5080174;28;20033;-60
2022/10/21 02:16:22;;;;;;;30.58;16.58;;;15.10;80.00;;;;;;5087739;28;20028;-59
2022/10/21 02:18:48;;;;;;;38.60;17.38;;;15.10;79.90;;;;;;5073246;28;20032;-60
2022/10/21 02:21:19;;;;;;;34.72;16.83;;;15.10;79.70;;;;;;5088106;28;20036;-59
2022/10/21 02:23:57;;;;;;;39.55;18.25;;;15.10;80.50;;;;;;5073916;28;20044;-62
2022/10/21 02:26:25;;;;;;;38.90;16.08;;;15.10;80.50;;;;;;5088016;28;20032;-61
2022/10/21 02:28:52;;;;;;;29.23;14.80;;;15.10;79.60;;;;;;5086703;28;20080;-60
2022/10/21 02:31:43;;;;;;;23.38;14.05;;;15.10;79.60;;;;;;5087923;28;20028;-61
2022/10/21 02:34:55;;;;;;;28.25;15.25;;;15.10;80.60;;;;;;5076607;28;20351;-61
2022/10/21 02:37:48;;;;;;;24.58;14.57;;;15.20;80.10;;;;;;5035763;28;20049;-60
2022/10/21 02:40:25;;;;;;;29.77;15.25;;;15.20;79.80;;;;;;5085339;28;20032;-61
2022/10/21 02:42:58;;;;;;;32.95;17.30;;;15.20;79.70;;;;;;5070119;28;20032;-60
2022/10/21 02:45:26;;;;;;;27.80;16.17;;;15.10;79.50;;;;;;5106751;28;20028;-60
2022/10/21 02:47:52;;;;;;;31.55;16.75;;;15.10;79.50;;;;;;5087711;28;20023;-62
2022/10/21 02:50:18;;;;;;;28.90;16.20;;;15.10;79.50;;;;;;5066760;28;20056;-60
2022/10/21 02:52:43;;;;;;;28.45;16.10;;;15.10;79.60;;;;;;5086284;28;20053;-60
2022/10/21 02:55:09;;;;;;;33.00;17.63;;;15.10;79.70;;;;;;5068498;28;20021;-60
2022/10/21 02:57:35;;;;;;;31.90;15.68;;;15.10;79.80;;;;;;5087024;28;20038;-59
2022/10/21 03:00:00;;;;;;;30.13;16.92;;;15.10;79.90;;;;;;5070011;28;20044;-60
2022/10/21 03:02:26;;;;;;;33.88;17.75;;;15.10;79.80;;;;;;5086299;28;20083;-60
2022/10/21 03:04:52;;;;;;;33.55;18.50;;;15.10;79.70;;;;;;5085737;28;20040;-60
2022/10/21 03:07:17;;;;;;;34.80;18.23;;;15.10;79.70;;;;;;5086990;28;20021;-59
2022/10/21 03:09:43;;;;;;;33.35;17.08;;;15.00;79.60;;;;;;5072424;28;20031;-60
2022/10/21 03:12:09;;;;;;;27.98;16.60;;;15.00;79.60;;;;;;5086325;28;20084;-59
2022/10/21 03:14:34;;;;;;;29.30;16.75;;;15.10;79.70;;;;;;5064282;28;20047;-60
2022/10/21 03:17:00;;;;;;;32.75;17.10;;;15.00;79.70;;;;;;5086111;28;20096;-60
2022/10/21 03:19:26;;;;;;;27.73;16.50;;;15.00;79.80;;;;;;5085694;28;20037;-60
2022/10/21 03:21:51;;;;;;;29.20;16.98;;;15.00;79.80;;;;;;5086551;28;20036;-60
2022/10/21 03:24:17;;;;;;;25.88;15.55;;;15.00;79.80;;;;;;5085860;28;20028;-61
2022/10/21 03:26:42;;;;;;;29.52;15.82;;;15.00;79.80;;;;;;5086649;28;20031;-60
2022/10/21 03:29:09;;;;;;;23.92;15.05;;;15.00;79.60;;;;;;5085083;28;20028;-60
2022/10/21 03:31:34;;;;;;;21.30;14.27;;;15.00;79.60;;;;;;5068583;28;20032;-59
2022/10/21 03:34:00;;;;;;;29.48;15.98;;;14.90;79.70;;;;;;5085133;28;20509;-60
2022/10/21 03:36:25;;;;;;;26.15;14.00;;;15.00;79.80;;;;;;5068477;28;20032;-60
2022/10/21 03:38:51;;;;;;;23.05;14.68;;;14.90;79.90;;;;;;5080024;28;20404;-60
2022/10/21 03:41:17;;;;;;;21.80;13.35;;;14.90;79.90;;;;;;5085548;28;20486;-60
2022/10/21 03:43:42;;;;;;;19.58;13.05;;;14.90;79.90;;;;;;5067378;28;20036;-61
2022/10/21 03:46:08;;;;;;;28.65;15.38;;;14.90;80.00;;;;;;5086317;28;20021;-60
2022/10/21 03:48:34;;;;;;;25.52;14.23;;;14.90;80.00;;;;;;5084358;28;20471;-59
2022/10/21 03:50:59;;;;;;;26.42;14.80;;;14.90;79.90;;;;;;5086242;28;20024;-61
2022/10/21 03:53:25;;;;;;;21.15;13.48;;;14.90;79.90;;;;;;5066659;28;20051;-60
2022/10/21 03:55:51;;;;;;;25.63;14.55;;;14.90;80.00;;;;;;5086363;28;20024;-61
2022/10/21 03:58:17;;;;;;;24.45;14.35;;;14.90;79.90;;;;;;5084708;28;20029;-61
2022/10/21 04:00:43;;;;;;;27.40;14.50;;;14.90;80.00;;;;;;5086112;28;20082;-59
2022/10/21 04:03:09;;;;;;;24.42;14.45;;;14.90;80.20;;;;;;5085889;28;20035;-60
2022/10/21 04:05:36;;;;;;;23.33;14.40;;;14.90;80.20;;;;;;5085061;28;20447;-60
2022/10/21 04:08:01;;;;;;;22.75;13.95;;;14.90;80.20;;;;;;5085848;28;20498;-61
2022/10/21 04:10:27;;;;;;;21.65;13.25;;;14.90;80.00;;;;;;5067189;28;20028;-59
2022/10/21 04:12:53;;;;;;;22.60;13.23;;;14.90;80.10;;;;;;5085746;28;20028;-60
2022/10/21 04:15:18;;;;;;;22.70;13.77;;;14.90;80.10;;;;;;5068301;28;20075;-60
2022/10/21 04:17:45;;;;;;;23.15;13.60;;;14.90;80.00;;;;;;5085020;28;20050;-59
2022/10/21 04:20:12;;;;;;;23.70;13.80;;;14.90;80.00;;;;;;5066690;28;20059;-60
2022/10/21 04:22:37;;;;;;;23.70;14.23;;;14.90;80.20;;;;;;5085910;28;20073;-60
2022/10/21 04:25:03;;;;;;;23.92;14.52;;;14.90;80.20;;;;;;5070390;28;20032;-59
2022/10/21 04:27:29;;;;;;;21.55;14.50;;;14.80;80.20;;;;;;5085036;28;20028;-61
2022/10/21 04:29:55;;;;;;;22.95;12.98;;;14.90;80.30;;;;;;5066698;28;20573;-59
2022/10/21 04:32:20;;;;;;;18.67;13.32;;;14.80;80.40;;;;;;5085377;28;20032;-60
2022/10/21 04:34:46;;;;;;;20.40;12.27;;;14.90;80.40;;;;;;5073203;28;20490;-61
2022/10/21 04:37:12;;;;;;;21.83;13.20;;;14.90;80.40;;;;;;5084833;28;20107;-59
2022/10/21 04:39:37;;;;;;;20.63;13.43;;;14.90;80.40;;;;;;5074215;28;20044;-61
2022/10/21 04:42:03;;;;;;;23.70;13.25;;;14.90;80.30;;;;;;5086611;28;20157;-60
2022/10/21 04:44:29;;;;;;;21.77;13.88;;;14.90;80.40;;;;;;5088607;28;20035;-60
2022/10/21 04:46:54;;;;;;;23.02;13.50;;;14.90;80.20;;;;;;5089631;28;20031;-59
2022/10/21 04:49:20;;;;;;;23.02;13.13;;;14.90;80.30;;;;;;5088187;28;20016;-60
2022/10/21 04:51:46;;;;;;;24.17;14.32;;;14.90;81.10;;;;;;5089391;28;20029;-60
2022/10/21 04:54:12;;;;;;;22.60;15.07;;;14.90;80.50;;;;;;5088598;28;20356;-61
2022/10/21 04:56:39;;;;;;;21.65;14.50;;;14.90;80.60;;;;;;5089278;28;20020;-59
2022/10/21 04:59:05;;;;;;;21.02;13.00;;;14.90;80.60;;;;;;5083152;28;20029;-60
2022/10/21 05:01:31;;;;;;;28.38;14.68;;;14.90;80.60;;;;;;5088607;28;20031;-59
2022/10/21 05:03:57;;;;;;;22.95;14.20;;;14.90;80.70;;;;;;5088215;28;20085;-61
2022/10/21 05:06:23;;;;;;;24.67;13.98;;;14.90;80.70;;;;;;5071622;28;20025;-61
2022/10/21 05:08:48;;;;;;;23.15;14.95;;;14.90;80.60;;;;;;5069968;28;20029;-60
2022/10/21 05:11:14;;;;;;;23.65;14.73;;;15.00;80.70;;;;;;5071353;28;20035;-61
2022/10/21 05:13:40;;;;;;;27.85;15.70;;;15.00;80.60;;;;;;5088011;28;20082;-61
2022/10/21 05:16:06;;;;;;;31.52;21.23;;;15.00;80.50;;;;;;5089154;28;20084;-59
2022/10/21 05:18:32;;;;;;;27.35;16.70;;;15.00;80.50;;;;;;5088044;28;20085;-59
2022/10/21 05:20:58;;;;;;;21.88;14.25;;;15.00;80.50;;;;;;5088674;28;20032;-61
2022/10/21 05:23:24;;;;;;;23.75;14.85;;;15.00;80.50;;;;;;5070766;28;20073;-61
2022/10/21 05:25:50;;;;;;;27.25;16.80;;;15.10;80.50;;;;;;5070056;28;20031;-60
2022/10/21 05:28:18;;;;;;;24.35;15.00;;;15.10;80.50;;;;;;5088734;28;20021;-61
2022/10/21 05:30:44;;;;;;;23.48;13.10;;;15.10;80.40;;;;;;5069694;28;20075;-60
2022/10/21 05:33:10;;;;;;;24.83;13.73;;;15.10;80.30;;;;;;5070098;28;20025;-60
2022/10/21 05:35:36;;;;;;;23.15;13.27;;;15.10;80.30;;;;;;5052797;28;20041;-61
2022/10/21 05:38:01;;;;;;;58.20;36.28;;;15.10;80.20;;;;;;5088003;28;20119;-61
2022/10/21 05:40:27;;;;;;;31.30;19.63;;;15.10;80.20;;;;;;5103360;28;20028;-61
2022/10/21 05:42:53;;;;;;;25.98;16.05;;;15.10;80.20;;;;;;5088881;28;20541;-62
2022/10/21 05:45:19;;;;;;;23.65;14.25;;;15.10;80.20;;;;;;5087714;28;20464;-60
2022/10/21 05:47:44;;;;;;;202.73;116.53;;;15.10;80.20;;;;;;5088296;28;20055;-59
2022/10/21 05:50:11;;;;;;;306.10;188.00;;;15.10;80.20;;;;;;5000400;28;20028;-60
2022/10/21 05:52:37;;;;;;;292.88;177.02;;;15.10;80.20;;;;;;5087689;28;20040;-59
2022/10/21 05:55:03;;;;;;;234.63;140.57;;;15.10;80.20;;;;;;5087693;28;20024;-61
2022/10/21 05:57:34;;;;;;;128.18;76.40;;;15.10;80.20;;;;;;5088236;28;20040;-59
2022/10/21 06:00:00;;;;;;;83.18;44.63;;;15.10;80.20;;;;;;5098340;28;20043;-58
2022/10/21 06:02:25;;;;;;;48.70;31.67;;;15.20;80.20;;;;;;5088734;28;20029;-59
2022/10/21 06:04:51;;;;;;;29.33;19.38;;;15.20;80.10;;;;;;5087520;28;20028;-60
2022/10/21 06:07:17;;;;;;;23.25;15.38;;;15.20;80.10;;;;;;5088021;28;20036;-60
2022/10/21 06:09:42;;;;;;;20.20;12.85;;;15.20;80.00;;;;;;5087346;28;20036;-59
2022/10/21 06:12:08;;;;;;;18.48;11.85;;;15.20;80.10;;;;;;5087788;28;20159;-60
2022/10/21 06:14:37;;;;;;;15.40;11.05;;;15.20;80.10;;;;;;5086676;28;20025;-59
2022/10/21 06:17:03;;;;;;;18.88;12.77;;;15.20;80.10;;;;;;5088152;28;20096;-61
2022/10/21 06:19:29;;;;;;;17.58;12.30;;;15.20;80.00;;;;;;5086881;28;20033;-59
2022/10/21 06:21:56;;;;;;;17.13;11.85;;;15.20;80.10;;;;;;5087987;28;20473;-58
2022/10/21 06:24:23;;;;;;;17.40;11.48;;;15.20;80.10;;;;;;5087274;28;20039;-59
2022/10/21 06:26:49;;;;;;;20.33;12.32;;;15.20;80.10;;;;;;5087660;28;20036;-59
2022/10/21 06:29:16;;;;;;;19.00;11.82;;;15.20;80.20;;;;;;5086872;28;20512;-60
2022/10/21 06:31:42;;;;;;;21.42;12.18;;;15.20;80.30;;;;;;5087671;28;20032;-61
2022/10/21 06:34:08;;;;;;;19.30;12.63;;;15.20;80.30;;;;;;5086974;28;20092;-59
2022/10/21 06:36:33;;;;;;;17.23;11.65;;;15.20;80.30;;;;;;5087636;28;20032;-60
2022/10/21 06:38:59;;;;;;;19.48;12.23;;;15.20;80.30;;;;;;5086560;28;20032;-59
2022/10/21 06:41:25;;;;;;;20.13;12.27;;;15.20;80.30;;;;;;5087591;28;20028;-60
2022/10/21 06:43:50;;;;;;;21.02;12.95;;;15.30;80.50;;;;;;5086317;28;20052;-59
2022/10/21 06:46:16;;;;;;;17.55;11.18;;;15.30;80.40;;;;;;5087622;28;20020;-59
2022/10/21 06:48:42;;;;;;;18.52;12.13;;;15.30;80.30;;;;;;5086872;28;20029;-59
2022/10/21 06:51:14;;;;;;;16.70;10.98;;;15.30;80.30;;;;;;5106227;28;20111;-59
2022/10/21 06:53:40;;;;;;;15.93;10.88;;;15.30;80.20;;;;;;5078290;28;20048;-59
2022/10/21 06:56:07;;;;;;;16.45;10.57;;;15.30;80.10;;;;;;5086203;28;20451;-59
2022/10/21 06:58:34;;;;;;;16.48;10.25;;;15.30;80.00;;;;;;5086862;28;20044;-59
2022/10/21 07:01:10;;;;;;;17.48;10.45;;;15.30;80.20;;;;;;5068353;28;20151;-59
2022/10/21 07:03:36;;;;;;;20.52;10.50;;;15.30;80.00;;;;;;5073840;28;20036;-60
2022/10/21 07:06:01;;;;;;;13.35;9.77;;;15.30;79.90;;;;;;5085594;28;20066;-60
2022/10/21 07:08:29;;;;;;;13.23;9.40;;;15.30;80.10;;;;;;5086988;28;20078;-61
2022/10/21 07:10:56;;;;;;;10.95;8.48;;;15.30;80.30;;;;;;5085889;28;20028;-60
2022/10/21 07:13:22;;;;;;;13.32;9.27;;;15.30;80.40;;;;;;5086798;28;20055;-60
2022/10/21 07:15:57;;;;;;;10.07;7.75;;;15.30;80.40;;;;;;5070137;28;20041;-61
2022/10/21 07:18:23;;;;;;;11.10;8.60;;;15.30;80.60;;;;;;5066980;28;20083;-60
2022/10/21 07:20:49;;;;;;;12.15;9.00;;;15.30;80.50;;;;;;5085049;28;20033;-59
2022/10/21 07:23:14;;;;;;;14.40;9.00;;;15.40;80.70;;;;;;5086454;28;20033;-59
2022/10/21 07:25:40;;;;;;;13.00;8.85;;;15.40;80.80;;;;;;5085383;28;20102;-60
2022/10/21 07:28:06;;;;;;;12.65;8.38;;;15.40;80.80;;;;;;5086419;28;20024;-62
2022/10/21 07:30:38;;;;;;;11.40;9.13;;;15.50;80.80;;;;;;5067913;28;20039;-59
2022/10/21 07:33:04;;;;;;;12.80;8.65;;;15.50;81.00;;;;;;5066608;28;20035;-60
2022/10/21 07:35:30;;;;;;;13.90;9.30;;;15.60;81.50;;;;;;5084696;28;20028;-59
2022/10/21 07:37:55;;;;;;;14.82;10.65;;;15.60;80.60;;;;;;5086299;28;20036;-59
2022/10/21 07:40:21;;;;;;;15.95;10.07;;;15.60;80.50;;;;;;5073842;28;20041;-59
2022/10/21 07:42:46;;;;;;;15.13;10.15;;;15.70;80.40;;;;;;5085484;28;20391;-60
2022/10/21 07:45:12;;;;;;;16.15;9.82;;;15.70;80.20;;;;;;5085268;28;20066;-59
2022/10/21 07:47:38;;;;;;;12.13;8.40;;;15.70;80.20;;;;;;5086018;28;20103;-60
2022/10/21 07:50:04;;;;;;;13.43;8.57;;;15.70;80.20;;;;;;5085054;28;20032;-59
2022/10/21 07:52:29;;;;;;;10.45;7.78;;;15.70;80.20;;;;;;5085513;28;20028;-59
2022/10/21 07:54:55;;;;;;;10.80;7.82;;;15.80;80.30;;;;;;5085074;28;20028;-59
2022/10/21 07:57:21;;;;;;;8.73;7.45;;;15.80;80.20;;;;;;5086014;28;20040;-61
2022/10/21 07:59:46;;;;;;;10.98;6.95;;;15.80;80.20;;;;;;5084960;28;20041;-59
2022/10/21 08:02:13;;;;;;;10.05;7.47;;;15.80;80.40;;;;;;5085943;28;20031;-59
2022/10/21 08:04:39;;;;;;;11.13;8.57;;;15.80;80.50;;;;;;5085005;28;20078;-59
2022/10/21 08:07:05;;;;;;;15.85;8.95;;;15.80;80.50;;;;;;5084447;28;20485;-59
2022/10/21 08:09:30;;;;;;;15.88;9.82;;;15.90;80.50;;;;;;5084235;28;20425;-60
2022/10/21 08:11:56;;;;;;;13.98;10.32;;;15.80;80.50;;;;;;5086021;28;20467;-59
2022/10/21 08:14:23;;;;;;;15.13;9.52;;;15.90;80.50;;;;;;5084821;28;20107;-60
2022/10/21 08:16:52;;;;;;;12.70;9.30;;;15.90;80.50;;;;;;5086262;28;20032;-59
2022/10/21 08:19:20;;;;;;;13.18;9.75;;;15.90;80.70;;;;;;5084535;28;20040;-61
2022/10/21 08:21:46;;;;;;;14.02;10.80;;;16.00;80.70;;;;;;5085869;28;20090;-59
2022/10/21 08:24:12;;;;;;;14.32;10.25;;;16.00;80.70;;;;;;5084634;28;20028;-59
2022/10/21 08:26:37;;;;;;;13.00;10.15;;;16.10;80.80;;;;;;5085863;28;20100;-60
2022/10/21 08:29:03;;;;;;;13.52;10.30;;;16.10;80.60;;;;;;5085739;28;20035;-60
2022/10/21 08:31:31;;;;;;;12.85;9.77;;;16.10;80.60;;;;;;5084644;28;20058;-60
2022/10/21 08:33:57;;;;;;;18.45;10.38;;;16.10;80.40;;;;;;5085680;28;20025;-59
2022/10/21 08:36:24;;;;;;;16.05;10.00;;;16.20;80.40;;;;;;5084765;28;20033;-62
2022/10/21 08:38:51;;;;;;;14.23;9.68;;;16.20;80.30;;;;;;5085213;28;20063;-59
2022/10/21 08:41:28;;;;;;;13.32;9.60;;;16.30;80.20;;;;;;5102073;28;20020;-61
2022/10/21 08:44:32;;;;;;;14.63;8.48;;;16.30;80.80;;;;;;5067621;28;20546;-61
2022/10/21 08:47:04;;;;;;;14.10;9.05;;;16.30;80.10;;;;;;5065388;28;20029;-61
2022/10/21 08:49:54;;;;;;;10.40;8.13;;;16.30;80.00;;;;;;5074535;28;20091;-61
2022/10/21 08:52:43;;;;;;;12.02;9.35;;;16.30;80.30;;;;;;5071723;28;20032;-59
2022/10/21 08:55:27;;;;;;;12.07;8.98;;;16.40;80.30;;;;;;5045314;28;20036;-59
2022/10/21 08:57:53;;;;;;;16.40;9.27;;;16.40;80.40;;;;;;5065620;28;20032;-61
2022/10/21 09:00:26;;;;;;;14.48;9.40;;;16.40;80.20;;;;;;5083672;28;20028;-61
2022/10/21 09:03:24;;;;;;;12.40;8.70;;;16.40;81.10;;;;;;5065330;28;20032;-61
2022/10/21 09:06:08;;;;;;;11.02;7.82;;;16.50;80.70;;;;;;4995678;28;20038;-61
2022/10/21 09:08:54;;;;;;;10.57;8.18;;;16.50;80.40;;;;;;4984292;28;20054;-60
2022/10/21 09:11:33;;;;;;;11.45;9.23;;;16.50;80.80;;;;;;5016125;28;20084;-61
2022/10/21 09:14:20;;;;;;;11.73;9.40;;;16.60;80.60;;;;;;5000181;28;20038;-59
2022/10/21 09:17:00;;;;;;;12.35;9.48;;;16.60;80.40;;;;;;5003504;28;20049;-59
2022/10/21 09:19:32;;;;;;;13.93;9.07;;;16.60;80.30;;;;;;5003441;28;20038;-60
2022/10/21 09:22:04;;;;;;;13.55;9.68;;;16.70;80.60;;;;;;4983923;28;20510;-59
2022/10/21 09:24:39;;;;;;;18.92;11.00;;;16.70;80.60;;;;;;5002526;28;20074;-60
2022/10/21 09:27:09;;;;;;;16.17;10.52;;;16.70;80.50;;;;;;5003563;28;20141;-59
2022/10/21 09:29:43;;;;;;;18.20;11.13;;;16.80;80.20;;;;;;5006191;28;20569;-60
2022/10/21 09:32:20;;;;;;;;;;;16.80;80.00;;;;;;5007684;28;20034;-59
2022/10/21 09:34:58;;;;;;;15.98;8.93;;;16.90;80.00;;;;;;5005820;28;20576;-60
2022/10/21 09:37:36;;;;;;;13.90;9.23;;;16.90;79.80;;;;;;5007056;28;20038;-60
2022/10/21 09:40:19;;;;;;;15.48;10.00;;;16.90;80.30;;;;;;4992471;28;20191;-59
2022/10/21 09:42:47;;;;;;;20.10;10.55;;;16.90;80.20;;;;;;5044328;28;20042;-59
2022/10/21 09:45:24;;;;;;;19.77;10.02;;;16.90;80.10;;;;;;5081106;28;20035;-60
2022/10/21 09:48:03;;;;;;;15.10;9.73;;;17.00;80.00;;;;;;5068922;28;20040;-60
2022/10/21 09:50:30;;;;;;;15.45;9.85;;;17.10;80.50;;;;;;5075790;28;20391;-61
2022/10/21 09:53:08;;;;;;;17.20;9.38;;;17.10;80.40;;;;;;5087942;28;20044;-60
2022/10/21 09:55:34;;;;;;;16.63;9.13;;;17.10;80.30;;;;;;5087655;28;20046;-58
2022/10/21 09:58:01;;;;;;;13.80;9.02;;;17.20;80.20;;;;;;5088205;28;20040;-59
2022/10/21 10:00:40;;;;;;;16.88;9.52;;;17.20;80.10;;;;;;5079078;28;20055;-60
2022/10/21 10:03:07;;;;;;;16.48;9.13;;;17.30;79.90;;;;;;5087586;28;20036;-60
2022/10/21 10:05:37;;;;;;;16.67;9.73;;;17.30;79.80;;;;;;5096139;28;20375;-61
2022/10/21 10:08:31;;;;;;;17.13;10.57;;;17.30;79.60;;;;;;5069969;28;20031;-60
2022/10/21 10:11:17;;;;;;;12.43;7.47;;;17.30;80.00;;;;;;5087278;28;20016;-61
2022/10/21 10:13:49;;;;;;;12.98;7.47;;;17.30;79.80;;;;;;5050152;28;20028;-61
2022/10/21 10:16:17;;;;;;;15.05;7.15;;;17.40;79.60;;;;;;5086751;28;20100;-60
2022/10/21 10:18:44;;;;;;;9.95;6.68;;;17.30;79.80;;;;;;5087879;28;20088;-60
2022/10/21 10:21:11;;;;;;;12.10;6.63;;;17.40;80.20;;;;;;5086935;28;20041;-61
2022/10/21 10:23:52;;;;;;;13.73;6.75;;;17.40;81.30;;;;;;5087682;28;20039;-61
2022/10/21 10:26:26;;;;;;;16.65;6.82;;;17.50;80.50;;;;;;5081539;28;20048;-60
2022/10/21 10:28:55;;;;;;;11.15;5.90;;;17.50;80.50;;;;;;5067814;28;20025;-60
2022/10/21 10:31:27;;;;;;;13.85;5.43;;;17.60;80.40;;;;;;5086643;28;20029;-59
2022/10/21 10:33:57;;;;;;;9.27;5.60;;;17.80;80.30;;;;;;5087370;28;20020;-60
2022/10/21 10:36:31;;;;;;;10.90;5.97;;;17.80;80.00;;;;;;5073342;28;20503;-61
2022/10/21 10:38:58;;;;;;;12.50;6.10;;;18.00;79.70;;;;;;5066648;28;20068;-61
2022/10/21 10:41:39;;;;;;;12.88;5.95;;;18.10;79.60;;;;;;5085993;28;20051;-61
2022/10/21 10:44:17;;;;;;;12.95;6.63;;;18.20;79.00;;;;;;5067560;28;20025;-59
2022/10/21 10:46:43;;;;;;;13.07;5.85;;;18.30;79.00;;;;;;5084479;28;20021;-59
2022/10/21 10:49:11;;;;;;;12.43;5.70;;;18.40;78.60;;;;;;5086462;28;20052;-60
2022/10/21 10:51:39;;;;;;;11.40;6.07;;;18.50;78.20;;;;;;5102821;28;20031;-59
2022/10/21 10:54:18;;;;;;;11.02;6.10;;;18.60;78.00;;;;;;5069392;28;20037;-60
2022/10/21 10:57:09;;;;;;;11.18;5.75;;;18.60;77.60;;;;;;5069279;28;20027;-61
2022/10/21 11:00:04;;;;;;;15.25;6.07;;;18.70;76.80;;;;;;5067267;28;20116;-61
2022/10/21 11:02:46;;;;;;;10.02;5.75;;;18.70;76.30;;;;;;5067007;28;20091;-60
2022/10/21 11:05:11;;;;;;;12.18;5.55;;;18.80;76.40;;;;;;5052578;28;20048;-60
2022/10/21 11:07:44;;;;;;;10.23;5.03;;;18.80;76.70;;;;;;5086887;28;20048;-61
2022/10/21 11:10:27;;;;;;;12.73;6.05;;;18.80;76.70;;;;;;5078855;28;20024;-60
2022/10/21 11:12:53;;;;;;;8.05;5.68;;;18.90;76.00;;;;;;5066798;28;20037;-61
2022/10/21 11:15:23;;;;;;;12.55;6.35;;;18.90;76.10;;;;;;5085324;28;20152;-61
2022/10/21 11:18:24;;;;;;;11.15;6.13;;;18.90;76.20;;;;;;5086756;28;20024;-61
2022/10/21 11:21:06;;;;;;;12.80;6.70;;;18.90;75.80;;;;;;5074222;28;20048;-60
2022/10/21 11:23:56;;;;;;;15.15;6.50;;;18.90;75.70;;;;;;5066784;28;20115;-61
2022/10/21 11:26:40;;;;;;;11.88;6.68;;;18.90;75.80;;;;;;5085250;28;20020;-60
2022/10/21 11:29:09;;;;;;;18.75;8.18;;;19.00;76.10;;;;;;5070724;28;20028;-59
2022/10/21 11:32:04;;;;;;;17.02;7.15;;;19.00;76.20;;;;;;5085346;28;20054;-62
2022/10/21 11:34:38;;;;;;;;;;;19.00;75.50;;;;;;5066962;28;20037;-60
2022/10/21 11:37:10;;;;;;;13.95;5.95;;;19.10;75.40;;;;;;5084892;28;19908;-62
2022/10/21 11:39:47;;;;;;;11.90;5.90;;;19.10;75.80;;;;;;5066772;28;20071;-61
2022/10/21 11:42:24;;;;;;;15.85;5.80;;;19.10;75.70;;;;;;5081662;28;20138;-61
2022/10/21 11:44:52;;;;;;;9.38;4.80;;;19.20;75.50;;;;;;5065391;28;20372;-62
2022/10/21 11:47:33;;;;;;;11.10;4.47;;;19.10;75.60;;;;;;5068193;28;20020;-62
2022/10/21 11:50:11;;;;;;;14.07;5.05;;;19.20;75.50;;;;;;5065712;28;20029;-60
2022/10/21 11:52:43;;;;;;;12.15;4.43;;;19.10;75.10;;;;;;5068546;28;20041;-61
2022/10/21 11:55:25;;;;;;;12.55;4.25;;;19.20;75.10;;;;;;5085505;28;20039;-61
2022/10/21 11:58:11;;;;;;;11.30;3.47;;;19.20;75.30;;;;;;5086200;28;20046;-60
2022/10/21 12:00:57;;;;;;;10.20;3.92;;;19.20;75.20;;;;;;5047308;28;20105;-61
2022/10/21 12:03:54;;;;;;;9.38;3.58;;;19.20;75.00;;;;;;5065471;28;20037;-60
2022/10/21 12:06:47;;;;;;;8.13;3.88;;;19.20;75.40;;;;;;5096759;28;20028;-62
2022/10/21 12:09:19;;;;;;;9.90;3.80;;;19.30;76.00;;;;;;5066312;28;20083;-59
2022/10/21 12:11:55;;;;;;;8.38;3.40;;;19.40;76.10;;;;;;5080256;28;20452;-62
2022/10/21 12:14:30;;;;;;;8.52;3.40;;;19.50;76.20;;;;;;5065768;28;20036;-61
2022/10/21 12:16:59;;;;;;;9.82;3.83;;;19.60;76.20;;;;;;5084816;28;20090;-59
2022/10/21 12:19:25;;;;;;;4.85;2.67;;;19.70;76.10;;;;;;5086012;28;20040;-61
2022/10/21 12:21:51;;;;;;;8.23;3.40;;;19.80;75.80;;;;;;5085056;28;20021;-60
2022/10/21 12:25:01;;;;;;;6.78;2.85;;;19.90;75.50;;;;;;5085845;28;20039;-61
2022/10/21 12:27:55;;;;;;;8.93;3.10;;;20.00;74.70;;;;;;5047008;28;20049;-61
2022/10/21 12:30:39;;;;;;;6.93;2.90;;;20.20;74.30;;;;;;5075712;28;20021;-60
2022/10/21 12:33:16;;;;;;;8.27;3.00;;;20.30;74.80;;;;;;5086121;28;20028;-60
2022/10/21 12:35:52;;;;;;;7.93;2.67;;;20.40;74.70;;;;;;5070634;28;20031;-61
2022/10/21 12:38:42;;;;;;;8.00;2.92;;;20.50;73.70;;;;;;5065551;28;20025;-59
2022/10/21 12:41:23;;;;;;;10.48;2.53;;;20.60;73.60;;;;;;5073977;28;20043;-60
2022/10/21 12:44:01;;;;;;;4.60;2.22;;;20.70;72.80;;;;;;5085713;28;20024;-61
2022/10/21 12:46:32;;;;;;;6.57;3.10;;;20.70;72.50;;;;;;5084015;28;20024;-60
2022/10/21 12:49:03;;;;;;;5.97;2.58;;;20.80;72.80;;;;;;5070898;28;20048;-61
2022/10/21 12:51:31;;;;;;;7.22;2.72;;;20.80;72.50;;;;;;5084513;28;20032;-61
2022/10/21 12:54:07;;;;;;;6.60;1.95;;;20.80;72.40;;;;;;5085378;28;20371;-61